createdAt,value
2023-04-23T00:02:22.794Z,15.59
2023-04-23T00:07:25.105Z,15.36
2023-04-23T00:12:27.749Z,15.28
2023-04-23T00:17:29.999Z,15.29
2023-04-23T00:22:31.681Z,15.20
2023-04-23T00:27:33.414Z,15.17
2023-04-23T00:32:35.255Z,15.26
2023-04-23T00:37:37.199Z,15.27
2023-04-23T00:42:39.269Z,15.17
2023-04-23T00:47:41.133Z,15.19
2023-04-23T00:52:42.805Z,15.21
2023-04-23T00:57:44.448Z,15.22
2023-04-23T01:02:47.557Z,15.18
2023-04-23T01:07:49.497Z,14.96
2023-04-23T01:12:52.219Z,14.85
2023-04-23T01:17:53.941Z,14.87
2023-04-23T01:22:56.228Z,14.79
2023-04-23T01:27:58.579Z,14.77
2023-04-23T01:33:00.962Z,14.83
2023-04-23T01:38:03.383Z,14.80
2023-04-23T01:43:06.146Z,14.72
2023-04-23T01:48:07.731Z,14.69
2023-04-23T01:53:09.561Z,14.76
2023-04-23T01:58:11.176Z,14.92
2023-04-23T02:03:12.954Z,15.01
2023-04-23T02:08:14.824Z,14.75
2023-04-23T02:13:16.420Z,14.66
2023-04-23T02:18:18.098Z,14.61
2023-04-23T02:23:19.715Z,14.51
2023-04-23T02:28:21.348Z,14.58
2023-04-23T02:33:23.463Z,14.47
2023-04-23T02:38:25.704Z,14.42
2023-04-23T02:43:27.482Z,14.30
2023-04-23T02:48:29.727Z,14.27
2023-04-23T02:53:31.935Z,14.42
2023-04-23T02:58:33.618Z,14.58
2023-04-23T03:03:36.383Z,14.67
2023-04-23T03:08:39.539Z,14.59
2023-04-23T03:13:41.360Z,14.52
2023-04-23T03:18:42.957Z,14.60
2023-04-23T03:23:44.799Z,14.59
2023-04-23T03:28:46.656Z,14.44
2023-04-23T03:33:48.660Z,14.32
2023-04-23T03:38:56.113Z,14.41
2023-04-23T03:43:58.361Z,14.59
2023-04-23T03:49:20.475Z,14.61
2023-04-23T03:54:24.570Z,14.74
2023-04-23T03:59:52.162Z,14.82
2023-04-23T04:04:55.137Z,14.73
2023-04-23T04:09:59.845Z,14.79
2023-04-23T04:15:03.185Z,14.84
2023-04-23T04:20:06.793Z,14.88
2023-04-23T04:25:08.754Z,14.89
2023-04-23T04:30:11.130Z,14.87
2023-04-23T04:35:14.196Z,14.77
2023-04-23T04:40:16.016Z,14.71
2023-04-23T04:45:17.891Z,14.58
2023-04-23T04:50:19.530Z,14.52
2023-04-23T04:55:21.213Z,14.45
2023-04-23T05:00:24.321Z,14.44
2023-04-23T05:05:26.803Z,14.31
2023-04-23T05:10:29.169Z,14.26
2023-04-23T05:15:30.791Z,14.13
2023-04-23T05:20:32.509Z,13.83
2023-04-23T05:25:35.663Z,13.67
2023-04-23T05:30:37.496Z,13.57
2023-04-23T05:35:39.155Z,13.50
2023-04-23T05:40:41.095Z,13.43
2023-04-23T05:45:43.110Z,13.37
2023-04-23T05:50:45.006Z,13.44
2023-04-23T05:55:46.612Z,13.43
2023-04-23T06:00:49.734Z,13.41
2023-04-23T06:05:51.599Z,13.31
2023-04-23T06:10:53.380Z,13.28
2023-04-23T06:15:55.208Z,13.30
2023-04-23T06:20:57.885Z,13.38
2023-04-23T06:26:00.649Z,13.41
2023-04-23T06:31:02.713Z,13.30
2023-04-23T06:36:05.604Z,13.40
2023-04-23T06:41:07.333Z,13.46
2023-04-23T06:46:11.359Z,13.47
2023-04-23T06:51:13.088Z,13.47
2023-04-23T06:56:14.734Z,13.40
2023-04-23T07:01:18.678Z,13.43
2023-04-23T07:06:20.751Z,13.34
2023-04-23T07:11:22.355Z,13.35
2023-04-23T07:16:25.559Z,13.42
2023-04-23T07:21:28.674Z,13.36
2023-04-23T07:26:30.684Z,13.36
2023-04-23T07:31:32.408Z,13.32
2023-04-23T07:36:34.053Z,13.35
2023-04-23T07:41:36.007Z,13.42
2023-04-23T07:46:37.666Z,13.42
2023-04-23T07:51:39.302Z,13.50
2023-04-23T07:56:43.099Z,13.60
2023-04-23T08:01:45.109Z,13.75
2023-04-23T08:06:46.993Z,13.88
2023-04-23T08:11:48.921Z,13.98
2023-04-23T08:16:52.545Z,14.11
2023-04-23T08:21:54.302Z,14.02
2023-04-23T08:26:56.957Z,14.07
2023-04-23T08:31:58.779Z,14.23
2023-04-23T08:37:00.370Z,14.31
2023-04-23T08:42:07.718Z,14.35
2023-04-23T08:47:12.272Z,14.47
2023-04-23T08:52:19.112Z,14.54
2023-04-23T08:57:22.126Z,14.61
2023-04-23T09:02:24.182Z,14.63
2023-04-23T09:07:26.024Z,14.72
2023-04-23T09:12:27.940Z,14.81
2023-04-23T09:17:30.689Z,14.92
2023-04-23T09:22:38.973Z,15.03
2023-04-23T09:27:41.359Z,15.09
2023-04-23T09:32:45.897Z,15.09
2023-04-23T09:37:49.363Z,15.07
2023-04-23T09:42:54.918Z,15.20
2023-04-23T09:47:57.903Z,15.42
2023-04-23T09:52:59.852Z,15.52
2023-04-23T09:58:02.710Z,15.66
2023-04-23T10:03:06.735Z,15.73
2023-04-23T10:08:10.297Z,15.76
2023-04-23T10:13:13.257Z,15.76
2023-04-23T10:18:15.086Z,15.89
2023-04-23T10:23:17.224Z,16.06
2023-04-23T10:28:21.891Z,16.04
2023-04-23T10:38:31.138Z,15.97
2023-04-23T10:43:32.868Z,16.13
2023-04-23T10:49:05.084Z,16.30
2023-04-23T10:54:07.337Z,16.54
2023-04-23T10:59:18.694Z,16.71
2023-04-23T11:04:22.709Z,16.87
2023-04-23T11:09:30.904Z,16.89
2023-04-23T11:14:36.366Z,17.03
2023-04-23T11:19:38.711Z,17.18
2023-04-23T11:24:44.757Z,17.39
2023-04-23T11:29:46.845Z,17.72
2023-04-23T11:34:50.459Z,17.96
2023-04-23T11:39:52.064Z,18.16
2023-04-23T11:44:53.645Z,18.10
2023-04-23T11:49:55.770Z,18.23
2023-04-23T11:55:02.246Z,18.19
2023-04-23T12:00:11.201Z,18.17
2023-04-23T12:05:13.606Z,18.59
2023-04-23T12:10:21.797Z,18.73
2023-04-23T12:15:23.727Z,18.84
2023-04-23T12:20:25.597Z,19.07
2023-04-23T12:25:27.400Z,19.39
2023-04-23T12:30:32.559Z,19.26
2023-04-23T12:36:00.916Z,19.01
2023-04-23T12:41:02.536Z,18.93
2023-04-23T12:46:04.184Z,18.82
2023-04-23T12:51:06.653Z,18.91
2023-04-23T12:56:08.230Z,18.84
2023-04-23T13:01:12.651Z,18.77
2023-04-23T13:06:14.754Z,19.11
2023-04-23T13:11:16.425Z,19.39
2023-04-23T13:16:18.143Z,19.62
2023-04-23T13:21:19.846Z,19.65
2023-04-23T13:26:22.542Z,19.83
2023-04-23T13:31:24.271Z,19.81
2023-04-23T13:36:26.106Z,19.73
2023-04-23T13:41:27.814Z,20.01
2023-04-23T13:46:29.507Z,20.43
2023-04-23T13:51:34.752Z,20.56
2023-04-23T13:56:38.068Z,20.11
2023-04-23T14:01:39.816Z,19.78
2023-04-23T14:06:41.913Z,19.79
2023-04-23T14:11:43.549Z,19.73
2023-04-23T14:16:45.208Z,19.66
2023-04-23T14:21:47.018Z,19.47
2023-04-23T14:26:50.178Z,19.45
2023-04-23T14:31:52.201Z,19.88
2023-04-23T14:36:54.370Z,20.00
2023-04-23T14:41:56.116Z,20.35
2023-04-23T14:46:57.699Z,20.94
2023-04-23T14:51:59.901Z,21.27
2023-04-23T14:57:01.879Z,21.77
2023-04-23T15:02:03.926Z,22.05
2023-04-23T15:07:05.743Z,21.98
2023-04-23T15:12:25.386Z,21.90
2023-04-23T15:17:27.323Z,21.63
2023-04-23T15:22:29.008Z,21.56
2023-04-23T15:27:30.611Z,21.45
2023-04-23T15:32:32.345Z,21.40
2023-04-23T15:37:34.058Z,21.20
2023-04-23T15:42:35.743Z,21.26
2023-04-23T15:47:38.426Z,21.30
2023-04-23T15:52:41.731Z,21.19
2023-04-23T15:57:43.412Z,20.95
2023-04-23T16:02:45.442Z,20.78
2023-04-23T16:07:47.384Z,21.01
2023-04-23T16:12:49.407Z,21.20
2023-04-23T16:17:52.651Z,21.32
2023-04-23T16:22:55.002Z,21.27
2023-04-23T16:27:56.812Z,21.02
2023-04-23T16:32:59.201Z,20.77
2023-04-23T16:38:01.001Z,20.58
2023-04-23T16:43:02.674Z,20.38
2023-04-23T16:48:04.560Z,20.26
2023-04-23T16:53:06.202Z,20.17
2023-04-23T16:58:07.851Z,20.04
2023-04-23T17:03:09.503Z,19.93
2023-04-23T17:08:11.151Z,19.76
2023-04-23T17:13:12.706Z,19.59
2023-04-23T17:18:14.463Z,19.40
2023-04-23T17:23:16.095Z,19.24
2023-04-23T17:28:21.526Z,19.15
2023-04-23T17:33:23.446Z,19.02
2023-04-23T17:38:25.967Z,18.87
2023-04-23T17:43:27.800Z,18.76
2023-04-23T17:48:29.861Z,18.66
2023-04-23T17:53:31.534Z,18.61
2023-04-23T17:58:34.812Z,18.51
2023-04-23T18:03:40.428Z,18.39
2023-04-23T18:08:43.416Z,18.24
2023-04-23T18:13:45.207Z,18.13
2023-04-23T18:18:52.044Z,17.95
2023-04-23T18:23:53.658Z,17.78
2023-04-23T18:28:57.806Z,17.75
2023-04-23T18:34:02.148Z,17.69
2023-04-23T18:39:04.119Z,17.60
2023-04-23T18:44:06.889Z,17.63
2023-04-23T18:49:27.452Z,17.64
2023-04-23T18:54:31.496Z,17.65
2023-04-23T18:59:35.844Z,17.67
2023-04-23T19:04:37.890Z,17.66
2023-04-23T19:09:41.660Z,17.66
2023-04-23T19:14:44.031Z,17.59
2023-04-23T19:19:47.497Z,17.03
2023-04-23T19:24:49.364Z,15.85
2023-04-23T19:29:53.581Z,15.20
2023-04-23T19:34:55.959Z,14.87
2023-04-23T19:39:58.334Z,14.69
2023-04-23T19:45:00.942Z,14.45
2023-04-23T19:50:03.034Z,14.33
2023-04-23T19:55:04.901Z,14.41
2023-04-23T20:00:07.334Z,14.54
2023-04-23T20:05:10.520Z,14.38
2023-04-23T20:10:12.577Z,14.14
2023-04-23T20:15:14.307Z,14.03
2023-04-23T20:20:16.264Z,14.06
2023-04-23T20:25:19.717Z,14.18
2023-04-23T20:30:22.345Z,14.34
2023-04-23T20:35:23.903Z,14.45
2023-04-23T20:40:26.047Z,14.48
2023-04-23T20:45:27.878Z,14.44
2023-04-23T20:50:29.964Z,14.37
2023-04-23T20:55:31.585Z,14.39
2023-04-23T21:00:34.910Z,14.41
2023-04-23T21:05:40.185Z,14.43
2023-04-23T21:10:41.776Z,14.22
2023-04-23T21:15:43.422Z,13.99
2023-04-23T21:20:46.020Z,13.86
2023-04-23T21:25:47.636Z,13.85
2023-04-23T21:30:53.393Z,13.93
2023-04-23T21:35:55.018Z,14.04
2023-04-23T21:40:56.633Z,14.15
2023-04-23T21:45:58.228Z,14.10
2023-04-23T21:51:00.293Z,14.10
2023-04-23T21:56:02.113Z,14.09
2023-04-23T22:01:03.970Z,13.98
2023-04-23T22:06:06.549Z,13.94
2023-04-23T22:11:10.380Z,13.94
2023-04-23T22:16:24.479Z,13.92
2023-04-23T22:21:29.208Z,13.89
2023-04-23T22:26:31.360Z,13.88
2023-04-23T22:31:32.941Z,13.82
2023-04-23T22:36:34.662Z,13.79
2023-04-23T22:41:38.730Z,13.75
2023-04-23T22:46:40.510Z,13.73
2023-04-23T22:51:42.311Z,13.73
2023-04-23T22:56:43.991Z,13.75
2023-04-23T23:01:45.959Z,13.69
2023-04-23T23:06:47.836Z,13.68
2023-04-23T23:11:49.468Z,13.63
2023-04-23T23:16:51.155Z,13.64
2023-04-23T23:21:52.855Z,13.64
2023-04-23T23:26:54.543Z,13.61
2023-04-23T23:31:56.961Z,13.54
2023-04-23T23:36:58.540Z,13.47
2023-04-23T23:42:01.855Z,13.47
2023-04-23T23:47:04.018Z,13.56
2023-04-23T23:52:06.089Z,13.66
2023-04-23T23:57:07.703Z,13.64
